Time;durP1;ratioP1;P1;durP2;ratioP2;P2;SDS_P1;SDS_P2;PMS_P1;PMS_P2;Temp;Humidity;BMP_temperature;BMP_pressure;BME280_temperature;BME280_humidity;BME280_pressure;Samples;Min_cycle;Max_cycle;Signal;HPM_P1;HPM_P2
2021/07/03 00:02:04;;;;;;;8.07;6.47;;;;;;;13.44;92.20;96052.06;5021557;28;20506;-80
2021/07/03 00:04:30;;;;;;;7.00;6.25;;;;;;;13.37;93.05;96063.81;5019050;28;20456;-81
2021/07/03 00:06:55;;;;;;;9.30;6.00;;;;;;;13.48;91.83;96066.50;5017414;28;20421;-80
2021/07/03 00:09:21;;;;;;;13.15;5.80;;;;;;;13.36;90.71;96060.41;5019498;28;20507;-81
2021/07/03 00:11:47;;;;;;;8.13;6.10;;;;;;;13.21;90.97;96053.63;5017603;28;20810;-81
2021/07/03 00:14:13;;;;;;;7.30;6.50;;;;;;;13.12;90.73;96057.66;5015880;28;20463;-82
2021/07/03 00:16:38;;;;;;;9.60;6.65;;;;;;;12.97;91.68;96053.50;5015194;28;20417;-80
2021/07/03 00:19:06;;;;;;;7.15;5.90;;;;;;;12.80;93.40;96060.69;5016360;28;20424;-80
2021/07/03 00:21:31;;;;;;;7.43;6.18;;;;;;;12.83;93.37;96052.69;5015020;28;20802;-80
2021/07/03 00:23:57;;;;;;;9.17;6.50;;;;;;;12.92;93.62;96051.22;5014898;28;20417;-82
2021/07/03 00:26:22;;;;;;;6.80;6.10;;;;;;;12.92;93.81;96046.03;5015470;28;20467;-80
2021/07/03 00:28:48;;;;;;;8.07;6.10;;;;;;;12.88;93.33;96047.16;5016976;28;20803;-80
2021/07/03 00:31:13;;;;;;;7.00;6.30;;;;;;;12.75;94.73;96048.91;5016262;28;20424;-80
2021/07/03 00:33:38;;;;;;;6.93;6.23;;;;;;;12.63;97.11;96049.75;5015605;28;20531;-80
2021/07/03 00:36:05;;;;;;;7.32;5.93;;;;;;;12.58;97.36;96047.47;5014651;28;20428;-80
2021/07/03 00:38:30;;;;;;;7.35;5.90;;;;;;;12.65;95.48;96050.50;5014665;28;20462;-80
2021/07/03 00:40:56;;;;;;;6.63;5.17;;;;;;;12.59;94.79;96051.72;5014626;28;20435;-80
2021/07/03 00:43:21;;;;;;;5.27;4.77;;;;;;;12.56;93.93;96051.91;5016361;28;20435;-80
2021/07/03 00:45:47;;;;;;;6.17;5.57;;;;;;;12.55;92.35;96047.66;5014542;28;20428;-80
2021/07/03 00:48:12;;;;;;;7.72;5.40;;;;;;;12.40;92.92;96046.91;5014636;28;20930;-80
2021/07/03 00:50:38;;;;;;;7.07;5.78;;;;;;;12.33;94.35;96050.81;5013949;28;20423;-80
2021/07/03 00:53:05;;;;;;;8.20;6.47;;;;;;;12.28;96.74;96048.53;5013879;28;20760;-81
2021/07/03 00:55:31;;;;;;;8.50;5.82;;;;;;;12.34;96.96;96050.72;5014150;28;20946;-80
2021/07/03 00:57:56;;;;;;;8.15;6.43;;;;;;;12.47;96.40;96045.56;5014430;28;20420;-80
2021/07/03 01:00:23;;;;;;;7.30;6.23;;;;;;;12.62;93.68;96037.69;5014561;28;20493;-80
2021/07/03 01:02:48;;;;;;;9.80;6.47;;;;;;;12.55;95.34;96039.88;5014051;28;21013;-81
2021/07/03 01:05:14;;;;;;;9.07;6.55;;;;;;;12.53;95.63;96036.53;5014045;28;20452;-82
2021/07/03 01:07:41;;;;;;;7.50;6.07;;;;;;;12.48;95.71;96041.19;5016986;28;20496;-82
2021/07/03 01:10:18;;;;;;;6.53;5.53;;;;;;;12.52;95.88;96042.66;5016620;28;20433;-82
2021/07/03 01:12:44;;;;;;;7.00;6.28;;;;;;;12.56;95.97;96041.53;5018557;28;20428;-82
2021/07/03 01:15:11;;;;;;;7.37;6.33;;;;;;;12.62;95.64;96038.53;5016414;28;20492;-82
2021/07/03 01:17:36;;;;;;;8.88;5.72;;;;;;;12.65;94.91;96037.50;5017860;28;20431;-82
2021/07/03 01:20:03;;;;;;;9.70;6.03;;;;;;;12.62;95.05;96033.31;5018133;28;20428;-82
2021/07/03 01:22:30;;;;;;;7.82;6.45;;;;;;;12.60;95.00;96037.78;5017192;28;20421;-82
2021/07/03 01:24:55;;;;;;;6.97;6.10;;;;;;;12.50;96.06;96031.56;5017246;28;20421;-82
2021/07/03 01:27:20;;;;;;;10.43;6.50;;;;;;;12.53;96.39;96034.78;5015903;28;20413;-81
2021/07/03 01:29:46;;;;;;;6.90;6.10;;;;;;;12.55;95.93;96035.50;5015915;28;20427;-80
2021/07/03 01:32:12;;;;;;;6.22;5.63;;;;;;;12.60;95.42;96035.19;5014829;28;20953;-80
2021/07/03 01:34:38;;;;;;;10.07;6.25;;;;;;;12.62;95.62;96029.91;5015326;28;20507;-80
2021/07/03 01:37:05;;;;;;;8.25;5.53;;;;;;;12.55;94.89;96032.91;5015833;28;20470;-80
2021/07/03 01:42:04;;;;;;;6.47;5.88;;;;;;;12.56;95.00;96044.94;4974588;28;20447;-75
2021/07/03 01:44:29;;;;;;;7.90;6.18;;;;;;;12.62;95.20;96045.50;4976036;28;20423;-76
2021/07/03 01:46:57;;;;;;;11.33;6.13;;;;;;;12.67;95.10;96053.81;4958208;28;20428;-76
2021/07/03 01:49:23;;;;;;;7.70;5.75;;;;;;;12.67;95.44;96040.81;4958337;28;20427;-76
2021/07/03 01:51:49;;;;;;;7.50;5.82;;;;;;;12.67;95.39;96035.59;4975634;28;20420;-75
2021/07/03 01:54:15;;;;;;;6.90;5.77;;;;;;;12.61;95.03;96026.47;4975809;28;20506;-76
2021/07/03 01:56:42;;;;;;;8.10;6.30;;;;;;;12.60;95.96;96033.41;4975293;28;20424;-75
2021/07/03 01:59:10;;;;;;;6.68;5.93;;;;;;;12.65;95.03;96047.88;4990482;28;20439;-76
2021/07/03 02:01:35;;;;;;;6.28;4.75;;;;;;;12.58;91.59;96045.69;4975483;28;20973;-75
2021/07/03 02:04:01;;;;;;;6.68;4.78;;;;;;;12.40;91.73;96033.09;4990730;28;20511;-75
2021/07/03 02:06:26;;;;;;;7.88;4.50;;;;;;;12.37;90.90;96036.72;4990186;28;20498;-75
2021/07/03 02:08:52;;;;;;;7.22;4.55;;;;;;;12.30;91.97;96033.66;4975389;28;20806;-76
2021/07/03 02:11:17;;;;;;;7.33;5.30;;;;;;;12.37;92.10;96028.91;4975241;28;20419;-75
2021/07/03 02:13:43;;;;;;;7.00;5.07;;;;;;;12.20;89.61;96027.44;4990382;28;20531;-75
2021/07/03 02:16:09;;;;;;;13.60;5.70;;;;;;;12.10;89.95;96024.59;4958248;28;20424;-76
2021/07/03 02:18:35;;;;;;;7.70;6.07;;;;;;;11.83;93.47;96029.81;4990312;28;20483;-75
2021/07/03 02:21:00;;;;;;;6.53;5.43;;;;;;;11.82;95.20;96024.66;4990151;28;20516;-76
2021/07/03 02:23:26;;;;;;;9.48;6.30;;;;;;;11.86;95.58;96018.38;4990207;28;20426;-75
2021/07/03 02:25:52;;;;;;;8.05;5.88;;;;;;;11.86;95.22;96014.03;4974842;28;20833;-75
2021/07/03 02:28:17;;;;;;;6.90;5.67;;;;;;;11.88;94.54;96023.47;4975071;28;20462;-75
2021/07/03 02:30:43;;;;;;;6.90;5.18;;;;;;;11.84;93.51;96017.66;4989968;28;20928;-75
2021/07/03 02:33:12;;;;;;;7.93;5.30;;;;;;;11.74;94.26;96011.34;4974846;28;20428;-75
2021/07/03 02:35:37;;;;;;;8.32;6.28;;;;;;;11.73;97.62;96014.88;4974649;28;20430;-75
2021/07/03 02:38:03;;;;;;;7.10;5.97;;;;;;;11.75;98.52;96013.84;4989859;28;20507;-76
2021/07/03 02:40:28;;;;;;;6.22;5.10;;;;;;;11.81;96.50;96017.81;4989605;28;20514;-76
2021/07/03 02:42:54;;;;;;;5.85;5.25;;;;;;;11.82;95.66;96022.06;4989839;28;20438;-75
2021/07/03 02:45:21;;;;;;;5.97;5.38;;;;;;;11.89;94.70;96019.94;4974516;28;20510;-75
2021/07/03 02:47:46;;;;;;;8.73;5.70;;;;;;;11.90;94.20;96027.63;4974744;28;20511;-75
2021/07/03 02:50:16;;;;;;;7.23;5.77;;;;;;;11.98;94.10;96029.75;4974527;28;20424;-75
2021/07/03 02:52:41;;;;;;;7.10;6.33;;;;;;;12.10;94.50;96028.97;4974551;28;20464;-75
2021/07/03 02:55:08;;;;;;;7.35;6.65;;;;;;;12.15;94.75;96024.28;4957002;28;20506;-75
2021/07/03 02:57:34;;;;;;;6.75;6.05;;;;;;;12.19;94.85;96015.38;4974359;28;20523;-75
2021/07/03 03:00:00;;;;;;;9.38;6.00;;;;;;;12.22;94.66;96016.94;4974686;28;20506;-76
2021/07/03 03:02:25;;;;;;;6.47;5.80;;;;;;;12.15;94.97;96013.91;4989605;28;20427;-76
2021/07/03 03:04:51;;;;;;;7.03;5.93;;;;;;;12.16;94.85;96009.53;4974564;28;20767;-76
2021/07/03 03:07:17;;;;;;;10.18;5.65;;;;;;;12.04;91.26;96009.41;4974158;28;20420;-75
2021/07/03 03:09:43;;;;;;;6.10;5.22;;;;;;;11.88;92.17;96015.69;4989104;28;20426;-75
2021/07/03 03:12:08;;;;;;;6.07;5.25;;;;;;;11.69;92.98;96011.66;4974214;28;20793;-75
2021/07/03 03:14:34;;;;;;;5.80;4.60;;;;;;;11.61;94.21;96016.50;4974237;28;20427;-75
2021/07/03 03:16:59;;;;;;;5.40;4.72;;;;;;;11.70;90.96;96010.72;4973847;28;20420;-75
2021/07/03 03:19:25;;;;;;;5.63;4.43;;;;;;;11.65;92.04;96017.13;4974529;28;20416;-75
2021/07/03 03:21:50;;;;;;;6.73;4.37;;;;;;;11.45;92.91;96013.19;4988844;28;20424;-76
2021/07/03 03:24:17;;;;;;;5.60;5.07;;;;;;;11.45;93.68;96013.19;4974033;28;20415;-75
2021/07/03 03:26:43;;;;;;;5.97;5.38;;;;;;;11.47;94.71;96013.94;4973804;28;20423;-75
2021/07/03 03:29:09;;;;;;;5.27;4.77;;;;;;;11.51;95.18;96012.81;4974085;28;20428;-75
2021/07/03 03:31:34;;;;;;;7.93;5.43;;;;;;;11.47;95.34;96012.16;4989015;28;20428;-75
2021/07/03 03:34:00;;;;;;;6.43;3.47;;;;;;;11.45;94.10;96013.19;4975690;28;20463;-78
2021/07/03 03:36:25;;;;;;;6.70;3.90;;;;;;;11.32;94.81;96006.16;4990038;28;20478;-76
2021/07/03 03:38:50;;;;;;;4.80;4.40;;;;;;;11.36;95.39;96012.00;4975350;28;20447;-78
2021/07/03 03:41:20;;;;;;;5.73;4.50;;;;;;;11.34;96.22;96006.06;4976392;28;20443;-78
2021/07/03 03:43:45;;;;;;;5.85;5.03;;;;;;;11.28;97.42;96009.88;4976458;28;20834;-78
2021/07/03 03:46:11;;;;;;;6.00;5.30;;;;;;;11.29;97.99;96016.72;4976621;28;20439;-78
2021/07/03 03:48:36;;;;;;;5.32;4.82;;;;;;;11.35;97.35;96013.75;4991780;28;20564;-78
2021/07/03 03:51:02;;;;;;;5.10;4.28;;;;;;;11.36;97.55;96010.22;4975851;28;20426;-77
2021/07/03 03:53:27;;;;;;;5.45;4.00;;;;;;;11.41;96.18;96009.09;4976036;28;20770;-77
2021/07/03 03:55:52;;;;;;;5.07;4.57;;;;;;;11.44;96.22;96008.94;4975802;28;20451;-78
2021/07/03 03:58:19;;;;;;;5.67;5.17;;;;;;;11.45;97.12;96010.56;4974290;28;20422;-75
2021/07/03 04:00:45;;;;;;;8.57;6.03;;;;;;;11.47;98.29;96004.38;4973468;28;20434;-78
2021/07/03 04:03:10;;;;;;;6.63;5.93;;;;;;;11.53;98.87;96003.16;4976247;28;20503;-77
2021/07/03 04:05:35;;;;;;;7.15;6.20;;;;;;;11.60;98.83;95996.66;4975567;28;20423;-77
2021/07/03 04:08:01;;;;;;;7.28;6.22;;;;;;;11.63;98.47;96004.25;4976198;28;20543;-78
2021/07/03 04:10:26;;;;;;;10.13;6.67;;;;;;;11.65;99.51;96005.00;4975732;28;20446;-77
2021/07/03 04:12:52;;;;;;;6.77;4.83;;;;;;;11.76;97.73;96009.50;4975453;28;20668;-78
2021/07/03 04:15:18;;;;;;;4.87;4.47;;;;;;;11.76;97.17;96015.50;4975302;28;20408;-77
2021/07/03 04:17:44;;;;;;;8.32;4.68;;;;;;;11.82;96.71;96016.88;4975407;28;20857;-77
2021/07/03 04:20:11;;;;;;;6.80;5.70;;;;;;;11.84;97.05;96018.47;4975927;28;20443;-78
2021/07/03 04:22:37;;;;;;;6.50;4.80;;;;;;;11.90;97.17;96011.22;4975730;28;20482;-78
2021/07/03 04:25:04;;;;;;;5.85;5.30;;;;;;;11.99;97.04;96011.47;4958295;28;20419;-78
2021/07/03 04:27:30;;;;;;;7.32;5.82;;;;;;;12.07;96.78;96010.97;4978674;28;20424;-78
2021/07/03 04:29:55;;;;;;;6.63;5.93;;;;;;;12.14;96.54;96009.66;4982389;28;20455;-76
2021/07/03 04:32:22;;;;;;;7.17;6.27;;;;;;;12.27;96.10;96007.94;4979777;28;20494;-76
2021/07/03 04:34:47;;;;;;;7.38;6.28;;;;;;;12.31;95.80;96005.94;4990912;28;20434;-76
2021/07/03 04:37:13;;;;;;;9.00;6.40;;;;;;;12.44;95.26;96009.41;4987685;28;20424;-76
2021/07/03 04:39:39;;;;;;;7.17;6.17;;;;;;;12.52;94.79;96004.53;4972808;28;20534;-76
2021/07/03 04:42:04;;;;;;;8.10;6.40;;;;;;;12.57;94.98;96014.63;4978405;28;20471;-78
2021/07/03 04:44:30;;;;;;;6.47;5.87;;;;;;;12.68;93.98;96000.88;4977771;28;20486;-78
2021/07/03 04:46:55;;;;;;;8.93;6.17;;;;;;;12.73;94.53;96006.63;4977703;28;20485;-78
2021/07/03 04:49:22;;;;;;;6.43;5.83;;;;;;;12.76;93.80;96009.84;4993239;28;20470;-78
2021/07/03 04:51:47;;;;;;;7.63;6.22;;;;;;;12.83;93.62;96012.88;4992467;28;20475;-78
2021/07/03 04:54:13;;;;;;;8.77;5.67;;;;;;;12.69;93.15;96016.41;4992205;28;21066;-78
2021/07/03 04:56:38;;;;;;;7.25;6.03;;;;;;;12.68;93.76;96006.09;4976526;28;20780;-78
2021/07/03 04:59:04;;;;;;;7.43;6.17;;;;;;;12.77;93.38;96006.31;4977202;28;20475;-78
2021/07/03 05:01:29;;;;;;;7.28;6.05;;;;;;;12.94;92.30;96012.97;4972458;28;20424;-76
2021/07/03 05:03:55;;;;;;;7.33;6.27;;;;;;;13.03;92.77;96006.31;4972405;28;20420;-76
2021/07/03 05:06:21;;;;;;;8.60;6.10;;;;;;;12.85;91.18;96005.78;4971903;28;20416;-76
2021/07/03 05:08:47;;;;;;;7.55;6.13;;;;;;;12.78;92.94;95999.34;4972310;28;20415;-76
2021/07/03 05:11:13;;;;;;;6.47;5.87;;;;;;;12.77;92.10;95998.50;4972114;28;20507;-76
2021/07/03 05:13:38;;;;;;;6.07;5.57;;;;;;;12.80;93.49;96000.91;4986242;28;20456;-75
2021/07/03 05:16:04;;;;;;;7.90;6.50;;;;;;;12.78;93.20;95994.97;4971899;28;20495;-76
2021/07/03 05:18:29;;;;;;;7.68;6.22;;;;;;;12.99;92.88;96000.47;4972119;28;20415;-75
2021/07/03 05:20:55;;;;;;;8.57;6.67;;;;;;;13.18;91.67;96002.63;4971897;28;20948;-76
2021/07/03 05:23:22;;;;;;;6.78;6.10;;;;;;;13.34;91.34;95997.22;4972143;28;20432;-77
2021/07/03 05:25:48;;;;;;;8.57;5.72;;;;;;;13.38;90.75;95998.66;4971839;28;20777;-75
2021/07/03 05:28:14;;;;;;;7.65;6.25;;;;;;;13.24;91.46;95998.81;4954620;28;20945;-75
2021/07/03 05:30:40;;;;;;;8.73;6.75;;;;;;;13.17;91.82;95994.94;4971962;28;20463;-75
2021/07/03 05:33:05;;;;;;;10.43;7.22;;;;;;;13.26;91.66;95989.13;4971839;28;20432;-75
2021/07/03 05:35:30;;;;;;;6.97;6.28;;;;;;;13.48;90.39;95996.25;4971707;28;20455;-75
2021/07/03 05:37:56;;;;;;;8.00;6.13;;;;;;;13.69;90.74;95989.53;4971925;28;20494;-75
2021/07/03 05:40:23;;;;;;;7.37;6.63;;;;;;;13.94;89.80;96001.63;4971662;28;20861;-75
2021/07/03 05:42:48;;;;;;;7.78;6.40;;;;;;;14.04;88.55;95993.94;4971870;28;20424;-75
2021/07/03 05:45:15;;;;;;;7.60;6.55;;;;;;;14.19;88.26;95992.00;4986577;28;20459;-75
2021/07/03 05:47:43;;;;;;;8.10;6.72;;;;;;;14.27;87.08;95994.88;4971971;28;20444;-75
2021/07/03 05:50:09;;;;;;;9.00;6.57;;;;;;;14.40;85.67;95993.03;4972124;28;20424;-75
2021/07/03 05:52:34;;;;;;;7.95;6.50;;;;;;;14.59;86.03;95989.06;4972458;28;20782;-78
2021/07/03 05:54:59;;;;;;;9.13;7.07;;;;;;;14.82;84.99;95982.09;4974616;28;20420;-78
2021/07/03 05:57:28;;;;;;;11.17;8.10;;;;;;;14.96;84.08;95984.50;4974275;28;20774;-78
2021/07/03 05:59:53;;;;;;;11.23;8.18;;;;;;;15.05;83.46;95981.16;4974762;28;20507;-78
2021/07/03 06:02:19;;;;;;;9.52;7.53;;;;;;;14.94;82.80;95989.84;4974177;28;20452;-78
2021/07/03 06:04:44;;;;;;;10.10;8.03;;;;;;;14.79;83.23;95985.78;4956451;28;20479;-78
2021/07/03 06:07:09;;;;;;;17.20;8.10;;;;;;;14.99;82.81;95981.66;4974177;28;20416;-78
2021/07/03 06:09:35;;;;;;;11.00;7.63;;;;;;;15.32;82.34;95978.22;4974571;28;20969;-77
2021/07/03 06:12:00;;;;;;;9.88;7.63;;;;;;;15.65;80.73;95976.50;4989459;28;20425;-78
2021/07/03 06:14:27;;;;;;;9.47;7.53;;;;;;;15.97;78.52;95979.16;4974958;28;20596;-78
2021/07/03 06:16:52;;;;;;;10.05;8.23;;;;;;;15.87;77.08;95979.09;4989288;28;20794;-78
2021/07/03 06:19:20;;;;;;;8.67;7.40;;;;;;;15.92;76.86;95970.88;4989274;28;20535;-78
2021/07/03 06:21:45;;;;;;;7.70;6.97;;;;;;;16.03;76.83;95973.44;4975305;28;20514;-77
2021/07/03 06:24:13;;;;;;;10.05;7.18;;;;;;;16.03;77.65;95983.06;4976902;28;20484;-78
2021/07/03 06:26:38;;;;;;;9.18;7.28;;;;;;;16.04;77.22;95980.31;4993286;28;20427;-79
2021/07/03 06:29:04;;;;;;;9.23;7.83;;;;;;;16.20;76.12;95982.50;4991913;28;20842;-76
2021/07/03 06:31:31;;;;;;;8.60;7.10;;;;;;;16.24;76.47;95977.84;4974957;28;20452;-76
2021/07/03 06:33:56;;;;;;;9.05;7.30;;;;;;;16.28;76.33;95979.25;4974922;28;20502;-77
2021/07/03 06:36:22;;;;;;;9.97;7.67;;;;;;;16.37;75.21;95978.50;4989745;28;20933;-77
2021/07/03 06:38:47;;;;;;;7.90;6.97;;;;;;;16.61;77.50;95978.25;4957618;28;20424;-77
2021/07/03 06:41:13;;;;;;;8.02;7.22;;;;;;;16.78;73.90;95975.09;4989585;28;20940;-77
2021/07/03 06:43:38;;;;;;;10.27;7.73;;;;;;;16.75;73.22;95972.72;4974767;28;20419;-77
2021/07/03 06:46:04;;;;;;;8.37;6.57;;;;;;;16.92;73.19;95972.13;4975051;28;20416;-76
2021/07/03 06:48:30;;;;;;;8.80;7.00;;;;;;;17.37;72.25;95974.38;4989398;28;20436;-76
2021/07/03 06:50:56;;;;;;;8.25;7.45;;;;;;;17.57;71.31;95977.03;4989496;28;20826;-77
2021/07/03 06:53:21;;;;;;;9.07;7.45;;;;;;;17.35;69.89;95980.69;4989369;28;20424;-77
2021/07/03 06:55:47;;;;;;;10.33;7.37;;;;;;;17.55;71.53;95986.84;4974244;28;20515;-77
2021/07/03 06:58:12;;;;;;;13.47;7.80;;;;;;;18.04;69.36;95980.75;4989496;28;20797;-76
2021/07/03 07:00:37;;;;;;;8.93;7.05;;;;;;;18.40;68.26;95980.22;4974461;28;20412;-77
2021/07/03 07:03:03;;;;;;;8.60;7.17;;;;;;;18.68;68.70;95978.50;4974515;28;20441;-77
2021/07/03 07:05:31;;;;;;;9.80;7.80;;;;;;;18.92;68.28;95965.78;4974336;28;20492;-77
2021/07/03 07:07:56;;;;;;;10.18;7.30;;;;;;;18.75;67.30;95974.38;4974498;28;20455;-77
2021/07/03 07:10:22;;;;;;;10.75;8.20;;;;;;;18.56;70.20;95975.22;4989051;28;20463;-77
2021/07/03 07:12:47;;;;;;;8.40;7.10;;;;;;;18.98;70.07;95972.22;4974341;28;20460;-77
2021/07/03 07:15:13;;;;;;;8.57;7.37;;;;;;;19.30;68.73;95971.84;4973942;28;20985;-77
2021/07/03 07:17:38;;;;;;;7.50;6.75;;;;;;;19.38;66.92;95968.50;4989076;28;20850;-77
2021/07/03 07:20:05;;;;;;;8.43;7.00;;;;;;;19.34;64.82;95962.69;4989253;28;20431;-77
2021/07/03 07:22:32;;;;;;;8.88;6.18;;;;;;;19.75;66.14;95968.44;4974033;28;20790;-78
2021/07/03 07:24:58;;;;;;;8.75;6.97;;;;;;;19.47;63.45;95962.38;4974142;28;20415;-78
2021/07/03 07:27:24;;;;;;;11.73;7.20;;;;;;;19.54;65.81;95961.66;4973670;28;20977;-77
2021/07/03 07:29:49;;;;;;;7.70;6.90;;;;;;;19.68;63.31;95962.97;4989172;28;20474;-77
2021/07/03 07:32:15;;;;;;;9.80;6.77;;;;;;;19.89;61.56;95962.69;4977097;28;20478;-76
2021/07/03 07:34:40;;;;;;;7.30;6.30;;;;;;;20.18;61.18;95953.78;4976854;28;20460;-78
2021/07/03 07:37:06;;;;;;;8.47;6.20;;;;;;;20.37;58.61;95945.69;4974072;28;20507;-78
2021/07/03 07:39:33;;;;;;;6.35;5.72;;;;;;;19.89;58.91;95946.91;4974330;28;20430;-77
2021/07/03 07:41:58;;;;;;;9.43;6.38;;;;;;;20.20;58.62;95947.34;4993304;28;20434;-81
2021/07/03 07:44:24;;;;;;;7.28;6.07;;;;;;;20.53;63.30;95943.22;4994204;28;20467;-81
2021/07/03 07:46:49;;;;;;;6.80;6.10;;;;;;;20.55;58.36;95943.09;4974891;28;20510;-78
2021/07/03 07:49:14;;;;;;;8.47;5.60;;;;;;;20.44;57.56;95932.78;4988704;28;20442;-77
2021/07/03 07:51:40;;;;;;;7.83;6.60;;;;;;;20.34;57.45;95934.66;4988569;28;20427;-77
2021/07/03 07:54:05;;;;;;;10.10;5.67;;;;;;;20.73;57.14;95937.78;4988484;28;20467;-77
2021/07/03 07:56:32;;;;;;;6.72;5.65;;;;;;;21.21;57.53;95931.09;4973267;28;20782;-77
2021/07/03 07:58:57;;;;;;;10.85;5.45;;;;;;;21.64;55.11;95930.13;4973707;28;20420;-78
2021/07/03 08:01:23;;;;;;;6.93;5.17;;;;;;;21.72;54.97;95930.16;4973142;28;20790;-77
2021/07/03 08:03:48;;;;;;;6.88;5.22;;;;;;;21.46;53.60;95927.59;4988500;28;20416;-75
2021/07/03 08:06:14;;;;;;;8.23;5.47;;;;;;;21.19;52.73;95928.63;4973258;28;20427;-74
2021/07/03 08:08:39;;;;;;;5.27;4.63;;;;;;;21.15;52.31;95929.13;4973316;28;20420;-76
2021/07/03 08:11:05;;;;;;;7.05;5.15;;;;;;;21.35;53.09;95937.63;4973247;28;20416;-76
2021/07/03 08:13:32;;;;;;;6.43;5.20;;;;;;;21.29;54.05;95939.06;4988062;28;20443;-75
2021/07/03 08:15:57;;;;;;;7.18;4.80;;;;;;;21.64;51.43;95935.41;4972927;28;20423;-76
2021/07/03 08:18:23;;;;;;;11.30;5.20;;;;;;;21.14;52.89;95930.09;4955862;28;20489;-77
2021/07/03 08:20:49;;;;;;;6.77;5.47;;;;;;;21.41;53.15;95937.00;4987980;28;20507;-76
2021/07/03 08:23:15;;;;;;;7.53;4.65;;;;;;;21.97;52.70;95928.41;4973201;28;20958;-76
2021/07/03 08:25:40;;;;;;;7.17;4.90;;;;;;;22.12;52.06;95931.22;4955403;28;20424;-76
2021/07/03 08:28:07;;;;;;;6.47;5.28;;;;;;;22.35;50.65;95927.94;4987942;28;20435;-76
2021/07/03 08:30:34;;;;;;;7.60;4.95;;;;;;;22.14;51.42;95931.91;4972739;28;20412;-76
2021/07/03 08:33:00;;;;;;;5.40;4.88;;;;;;;22.45;52.74;95941.81;4987671;28;20431;-76
2021/07/03 08:35:25;;;;;;;7.45;5.05;;;;;;;22.89;52.03;95936.97;4972485;28;20432;-76
2021/07/03 08:37:51;;;;;;;7.60;5.23;;;;;;;23.19;50.73;95940.72;4987636;28;20515;-75
2021/07/03 08:40:18;;;;;;;5.28;4.78;;;;;;;23.38;49.54;95933.38;4987437;28;20432;-75
2021/07/03 08:42:44;;;;;;;7.47;4.57;;;;;;;22.79;49.30;95928.41;4987527;28;20787;-76
2021/07/03 08:45:11;;;;;;;7.30;4.75;;;;;;;23.05;49.28;95919.47;4972391;28;20434;-76
2021/07/03 08:47:39;;;;;;;7.93;4.68;;;;;;;22.91;47.99;95921.78;4987559;28;20427;-76
2021/07/03 08:50:07;;;;;;;7.60;5.03;;;;;;;22.76;48.39;95918.16;4955091;28;20495;-76
2021/07/03 08:52:32;;;;;;;7.40;5.05;;;;;;;22.70;48.25;95919.69;4972596;28;20420;-76
2021/07/03 08:55:09;;;;;;;5.33;4.53;;;;;;;22.72;49.48;95927.41;4972608;28;20944;-76
2021/07/03 08:57:41;;;;;;;8.63;4.83;;;;;;;22.81;49.90;95925.59;4973126;28;20415;-76
2021/07/03 09:00:07;;;;;;;5.68;4.70;;;;;;;22.83;49.15;95920.97;4972901;28;20503;-77
2021/07/03 09:02:33;;;;;;;6.43;4.90;;;;;;;23.07;48.20;95917.47;4972489;28;20408;-77
2021/07/03 09:05:00;;;;;;;12.90;5.20;;;;;;;23.67;48.83;95906.34;4987266;28;20930;-77
2021/07/03 09:07:33;;;;;;;20.67;9.63;;;;;;;24.19;50.74;95900.38;4971993;28;20428;-78
2021/07/03 09:09:58;;;;;;;8.23;4.95;;;;;;;24.17;46.06;95899.69;4987146;28;20424;-78
2021/07/03 09:12:30;;;;;;;63.20;11.70;;;;;;;24.52;46.34;95894.81;4972512;28;20420;-77
2021/07/03 09:14:55;;;;;;;9.45;4.50;;;;;;;23.79;43.30;95896.19;4954700;28;20511;-75
2021/07/03 09:17:21;;;;;;;62.13;9.75;;;;;;;22.93;45.71;95893.41;4972078;28;20973;-76
2021/07/03 09:19:50;;;;;;;17.13;5.63;;;;;;;22.71;45.98;95902.84;4986943;28;20420;-75
2021/07/03 09:22:17;;;;;;;7.07;4.63;;;;;;;22.82;47.12;95906.94;4972152;28;20937;-76
2021/07/03 09:24:42;;;;;;;10.48;4.47;;;;;;;23.66;45.77;95905.53;4954755;28;20494;-76
2021/07/03 09:27:12;;;;;;;6.00;4.28;;;;;;;24.21;45.44;95902.81;4971931;28;20922;-76
2021/07/03 09:29:47;;;;;;;4.72;4.10;;;;;;;24.73;46.40;95894.94;4972152;28;20493;-77
2021/07/03 09:32:13;;;;;;;6.10;4.22;;;;;;;24.92;45.37;95890.09;4972342;28;20789;-77
2021/07/03 09:34:40;;;;;;;5.07;4.28;;;;;;;25.06;44.16;95886.63;4972465;28;20536;-77
2021/07/03 09:37:06;;;;;;;6.45;3.97;;;;;;;25.27;44.60;95883.28;4971842;28;20479;-77
2021/07/03 09:39:33;;;;;;;4.47;3.83;;;;;;;25.52;42.34;95878.47;4986775;28;20436;-77
2021/07/03 09:41:59;;;;;;;13.88;5.80;;;;;;;25.64;39.98;95876.97;4972309;28;20475;-76
2021/07/03 09:44:24;;;;;;;5.67;4.23;;;;;;;25.84;41.42;95879.88;4971823;28;20474;-77
2021/07/03 09:46:51;;;;;;;5.53;4.30;;;;;;;25.87;40.74;95889.28;4971578;28;20802;-77
2021/07/03 09:49:19;;;;;;;5.30;3.78;;;;;;;25.38;40.39;95892.59;4971896;28;20475;-77
2021/07/03 09:51:46;;;;;;;5.25;3.80;;;;;;;25.33;39.88;95886.00;4972626;28;20515;-77
2021/07/03 09:54:13;;;;;;;8.38;4.03;;;;;;;24.72;41.29;95890.63;4971809;28;20487;-77
2021/07/03 09:56:41;;;;;;;5.93;3.80;;;;;;;24.56;40.98;95888.16;4986636;28;20428;-76
2021/07/03 09:59:07;;;;;;;5.15;4.20;;;;;;;24.43;40.38;95885.28;4973519;28;20428;-75
2021/07/03 10:01:32;;;;;;;4.22;3.83;;;;;;;25.00;40.63;95882.09;4975762;28;20424;-77
2021/07/03 10:04:01;;;;;;;4.90;3.80;;;;;;;25.25;41.14;95869.38;4958255;28;20416;-76
2021/07/03 10:06:31;;;;;;;4.43;3.80;;;;;;;25.69;43.92;95868.44;4990218;28;20937;-77
2021/07/03 10:09:01;;;;;;;5.00;4.13;;;;;;;26.04;39.99;95870.28;4975859;28;20858;-77
2021/07/03 10:11:30;;;;;;;6.82;4.43;;;;;;;25.06;40.94;95865.44;4958284;28;20432;-71
2021/07/03 10:14:02;;;;;;;5.55;4.22;;;;;;;24.66;41.46;95862.25;4976072;28;20455;-76
2021/07/03 10:16:29;;;;;;;5.55;3.85;;;;;;;25.35;40.98;95869.91;4975248;28;20798;-77
2021/07/03 10:19:05;;;;;;;6.35;3.90;;;;;;;25.42;40.65;95870.81;4975472;28;20416;-76
2021/07/03 10:21:31;;;;;;;5.53;3.60;;;;;;;25.42;41.31;95873.47;4975323;28;20412;-76
2021/07/03 10:23:56;;;;;;;7.03;4.57;;;;;;;25.02;40.07;95861.50;4990004;28;20954;-76
2021/07/03 10:26:34;;;;;;;5.10;4.32;;;;;;;24.54;41.09;95859.19;4989707;28;20486;-76
2021/07/03 10:29:01;;;;;;;5.07;4.30;;;;;;;23.98;42.86;95861.31;4975089;28;20438;-76
2021/07/03 10:31:32;;;;;;;6.78;4.13;;;;;;;24.67;42.06;95855.13;4957440;28;20432;-76
2021/07/03 10:33:58;;;;;;;4.70;4.17;;;;;;;25.33;42.33;95861.34;4977415;28;20431;-77
2021/07/03 10:36:26;;;;;;;4.50;3.80;;;;;;;25.35;41.81;95854.81;4994350;28;20946;-77
2021/07/03 10:38:52;;;;;;;5.80;3.75;;;;;;;25.89;41.77;95850.13;4992881;28;20527;-77
2021/07/03 10:41:20;;;;;;;5.32;3.70;;;;;;;26.07;38.32;95845.19;4976090;28;20435;-76
2021/07/03 10:43:47;;;;;;;6.80;3.40;;;;;;;25.18;37.87;95844.59;4991254;28;20443;-76
2021/07/03 10:46:24;;;;;;;4.15;3.53;;;;;;;25.25;38.68;95842.88;4974952;28;20436;-77
2021/07/03 10:48:54;;;;;;;5.03;3.83;;;;;;;24.94;38.49;95837.75;4975560;28;20908;-76
2021/07/03 10:51:29;;;;;;;11.38;4.00;;;;;;;25.79;40.20;95831.88;4958159;28;20424;-77
2021/07/03 10:54:05;;;;;;;4.03;3.53;;;;;;;26.10;37.84;95836.84;4990751;28;20483;-76
2021/07/03 10:56:38;;;;;;;8.88;3.92;;;;;;;25.00;38.21;95839.69;4975385;28;20466;-76
2021/07/03 10:59:08;;;;;;;4.50;3.58;;;;;;;24.76;39.88;95843.44;4989879;28;20970;-77
2021/07/03 11:01:35;;;;;;;4.60;3.47;;;;;;;25.62;43.92;95833.06;4974882;28;20424;-77
2021/07/03 11:04:12;;;;;;;4.40;4.00;;;;;;;25.78;40.22;95836.34;4989766;28;20511;-77
2021/07/03 11:06:42;;;;;;;4.88;3.65;;;;;;;25.80;42.72;95826.34;4989299;28;20424;-77
2021/07/03 11:09:18;;;;;;;4.20;2.95;;;;;;;25.89;37.81;95823.59;4974611;28;20416;-77
2021/07/03 11:11:43;;;;;;;3.65;3.15;;;;;;;26.01;40.36;95822.06;4973643;28;20522;-77
2021/07/03 11:14:15;;;;;;;8.80;3.20;;;;;;;26.26;39.79;95819.84;4976009;28;20524;-78
2021/07/03 11:16:42;;;;;;;4.63;3.53;;;;;;;26.18;41.57;95812.81;4990589;28;20431;-77
2021/07/03 11:19:07;;;;;;;4.55;3.10;;;;;;;25.87;35.86;95813.16;4989141;28;20428;-77
2021/07/03 11:21:33;;;;;;;4.20;3.20;;;;;;;25.72;37.00;95817.69;4974125;28;20474;-77
2021/07/03 11:23:59;;;;;;;3.40;3.10;;;;;;;25.48;37.39;95816.22;4974414;28;20428;-77
2021/07/03 11:26:25;;;;;;;4.28;3.20;;;;;;;25.63;37.01;95808.22;4989024;28;20435;-77
2021/07/03 11:28:58;;;;;;;3.90;2.75;;;;;;;26.01;38.25;95806.16;4989340;28;20430;-77
2021/07/03 11:31:24;;;;;;;3.50;3.20;;;;;;;26.31;36.77;95804.13;4974364;28;20716;-76